Flight Track Log - Related Links

Times and Time Zones

All times are in EDT time to prevent confusion due to time zone crossing. See the EJM918 flight status page for this flight to view local times or setup timezone preferences in your user account.

Time Position Orientation Groundspeed Altitude Reporting Facility
EDT Latitude Longitude Course Direction KTS MPH feet Rate Location/Type
Mon 05:50:52 PM 41.1000 -73.7500 50° Northeast 193 222 2,800  Level New York TRACON
Mon 05:51:46 PM 41.1000 -73.8167 270° West 206 237 3,800 3,263 Climbing New York TRACON
Mon 05:52:46 PM 41.1500 -73.8833 315° West 225 259 9,000 3,150 Climbing New York TRACON
Mon 05:53:46 PM 41.2000 -73.8500 27° Northeast 298 343 10,100 500 Climbing New York TRACON
Mon 05:54:46 PM 41.2333 -73.7333 69° East 321 369 10,000 -50 Descending New York TRACON
Mon 05:55:46 PM 41.2667 -73.6167 69° East 346 398 10,000  Level New York TRACON
Mon 05:56:00 PM 41.4044 -73.3997 50° Northeast  Level FlightAware Approximate
Mon 05:56:52 PM 41.3333 -73.5167 48° Northeast 334 384 10,000  Level New York TRACON
Mon 05:57:46 PM 41.3833 -73.4500 45° Northeast 292 336 10,000  Level New York TRACON
Mon 05:58:46 PM 41.4333 -73.3667 51° Northeast 291 335 10,000 49 Level New York TRACON
Mon 05:59:48 PM 41.4928 -73.2964 42° Northeast 262 302 10,100 52 Climbing Boston Center
Mon 06:00:42 PM 41.5450 -73.2472 35° Northeast 274 315 10,100  Level Boston Center
Mon 06:01:43 PM 41.5978 -73.1675 48° Northeast 280 322 10,100 -446 Level Boston Center
Mon 06:02:43 PM 41.6442 -73.0872 52° Northeast 277 319 9,200 -1,339 Descending Boston Center
Mon 06:03:44 PM 41.6903 -73.0017 54° Northeast 288 331 7,400 -1,086 Descending Boston Center
Mon 06:04:39 PM 41.7283 -72.9131 60° Northeast 292 336 7,100 -1,046 Descending Boston Center
Mon 06:05:33 PM 41.7558 -72.8408 63° Northeast 268 308 5,500 -1,795 Descending Boston Center
Mon 06:06:46 PM 41.8019 -72.7325 60° Northeast 271 312 3,300 -1,157 Descending Boston Center
Mon 06:07:53 PM 41.8333 -72.6547 62° Northeast 198 228 2,800 -639 Descending Boston Center
Mon 06:08:48 PM 41.8689 -72.6186 37° Northeast 173 199 2,000 -942 Descending Boston Center
Mon 06:09:54 PM 41.9022 -72.6492 326° Northwest 141 162 900 -803 Descending Boston Center
Mon 06:10:55 PM 41.9250 -72.6772 318° Northwest 120 138 300 -590 Descending Boston Center

Login

Don't have an account? Register now (free) for customized features, flight alerts, and more!